sensor_id;sensor_type;location;lat;lon;timestamp;pressure;altitude;pressure_sealevel;temperature;humidity
46642;BME280;32370;41.864;-88.124;2022-11-25T00:01:37;99102.61;;;6.19;82.44
46642;BME280;32370;41.864;-88.124;2022-11-25T00:04:05;99093.34;;;6.38;83.12
46642;BME280;32370;41.864;-88.124;2022-11-25T00:06:35;99089.13;;;5.94;83.40
46642;BME280;32370;41.864;-88.124;2022-11-25T00:09:05;99084.88;;;5.59;83.54
46642;BME280;32370;41.864;-88.124;2022-11-25T00:11:34;99090.80;;;5.81;83.19
46642;BME280;32370;41.864;-88.124;2022-11-25T00:14:04;99095.08;;;6.08;82.80
46642;BME280;32370;41.864;-88.124;2022-11-25T00:16:31;99083.21;;;5.42;83.47
46642;BME280;32370;41.864;-88.124;2022-11-25T00:18:59;99087.51;;;5.65;84.88
46642;BME280;32370;41.864;-88.124;2022-11-25T00:21:30;99093.30;;;5.26;84.15
46642;BME280;32370;41.864;-88.124;2022-11-25T00:24:00;99103.71;;;5.34;83.94
46642;BME280;32370;41.864;-88.124;2022-11-25T00:26:29;99102.67;;;5.45;83.99
46642;BME280;32370;41.864;-88.124;2022-11-25T00:29:00;99105.75;;;5.76;84.49
46642;BME280;32370;41.864;-88.124;2022-11-25T00:31:29;99108.83;;;5.86;84.60
46642;BME280;32370;41.864;-88.124;2022-11-25T00:33:58;99100.09;;;5.93;84.89
46642;BME280;32370;41.864;-88.124;2022-11-25T00:36:28;99099.06;;;5.86;84.83
46642;BME280;32370;41.864;-88.124;2022-11-25T00:38:58;99096.40;;;6.08;85.58
46642;BME280;32370;41.864;-88.124;2022-11-25T00:41:26;99083.30;;;6.11;86.55
46642;BME280;32370;41.864;-88.124;2022-11-25T00:43:55;99089.91;;;6.46;86.46
46642;BME280;32370;41.864;-88.124;2022-11-25T00:46:23;99096.23;;;6.08;86.54
46642;BME280;32370;41.864;-88.124;2022-11-25T00:48:51;99106.53;;;6.30;85.92
46642;BME280;32370;41.864;-88.124;2022-11-25T00:51:19;99109.01;;;6.32;86.51
46642;BME280;32370;41.864;-88.124;2022-11-25T00:53:46;99112.17;;;6.37;86.77
46642;BME280;32370;41.864;-88.124;2022-11-25T00:56:14;99110.18;;;6.60;86.18
46642;BME280;32370;41.864;-88.124;2022-11-25T00:58:43;99108.76;;;6.61;86.40
46642;BME280;32370;41.864;-88.124;2022-11-25T01:01:11;99109.79;;;6.67;86.29
46642;BME280;32370;41.864;-88.124;2022-11-25T01:03:40;99106.34;;;6.76;86.75
46642;BME280;32370;41.864;-88.124;2022-11-25T01:06:09;99106.53;;;7.04;88.05
46642;BME280;32370;41.864;-88.124;2022-11-25T01:08:38;99109.82;;;6.58;88.21
46642;BME280;32370;41.864;-88.124;2022-11-25T01:11:09;99110.87;;;6.62;88.21
46642;BME280;32370;41.864;-88.124;2022-11-25T01:13:37;99103.25;;;6.91;88.04
46642;BME280;32370;41.864;-88.124;2022-11-25T01:16:07;99101.83;;;6.65;89.33
46642;BME280;32370;41.864;-88.124;2022-11-25T01:18:35;99112.11;;;6.11;91.74
46642;BME280;32370;41.864;-88.124;2022-11-25T01:21:06;99106.42;;;6.46;91.49
46642;BME280;32370;41.864;-88.124;2022-11-25T01:23:35;99108.02;;;6.33;91.33
46642;BME280;32370;41.864;-88.124;2022-11-25T01:26:04;99112.62;;;6.76;90.67
46642;BME280;32370;41.864;-88.124;2022-11-25T01:28:32;99111.48;;;7.15;90.37
46642;BME280;32370;41.864;-88.124;2022-11-25T01:31:01;99109.40;;;6.62;90.97
46642;BME280;32370;41.864;-88.124;2022-11-25T01:33:30;99108.85;;;6.69;90.77
46642;BME280;32370;41.864;-88.124;2022-11-25T01:36:01;99118.85;;;7.20;89.90
46642;BME280;32370;41.864;-88.124;2022-11-25T01:38:29;99116.05;;;7.06;90.33
46642;BME280;32370;41.864;-88.124;2022-11-25T01:40:58;99111.33;;;6.95;90.10
46642;BME280;32370;41.864;-88.124;2022-11-25T01:43:27;99112.99;;;7.25;89.76
46642;BME280;32370;41.864;-88.124;2022-11-25T01:45:57;99111.80;;;7.02;89.80
46642;BME280;32370;41.864;-88.124;2022-11-25T01:48:31;99115.17;;;7.62;89.60
46642;BME280;32370;41.864;-88.124;2022-11-25T01:51:02;99118.91;;;6.87;89.52
46642;BME280;32370;41.864;-88.124;2022-11-25T01:53:30;99124.01;;;7.26;89.13
46642;BME280;32370;41.864;-88.124;2022-11-25T01:56:01;99116.64;;;7.13;89.70
46642;BME280;32370;41.864;-88.124;2022-11-25T01:58:32;99116.57;;;7.15;89.76
46642;BME280;32370;41.864;-88.124;2022-11-25T02:01:02;99119.88;;;7.15;89.85
46642;BME280;32370;41.864;-88.124;2022-11-25T02:03:33;99119.15;;;7.23;89.58
46642;BME280;32370;41.864;-88.124;2022-11-25T02:06:08;99116.41;;;7.41;88.95
46642;BME280;32370;41.864;-88.124;2022-11-25T02:08:38;99111.71;;;7.38;89.01
46642;BME280;32370;41.864;-88.124;2022-11-25T02:11:06;99107.57;;;7.44;88.70
46642;BME280;32370;41.864;-88.124;2022-11-25T02:13:34;99109.52;;;7.29;88.49
46642;BME280;32370;41.864;-88.124;2022-11-25T02:16:03;99106.41;;;7.07;88.43
46642;BME280;32370;41.864;-88.124;2022-11-25T02:18:31;99108.12;;;7.00;88.66
46642;BME280;32370;41.864;-88.124;2022-11-25T02:20:59;99109.70;;;7.26;88.58
46642;BME280;32370;41.864;-88.124;2022-11-25T02:23:31;99113.11;;;7.60;88.19
46642;BME280;32370;41.864;-88.124;2022-11-25T02:26:03;99108.28;;;7.44;88.57
46642;BME280;32370;41.864;-88.124;2022-11-25T02:28:32;99114.99;;;7.25;88.48
46642;BME280;32370;41.864;-88.124;2022-11-25T02:31:00;99118.70;;;7.29;88.54
46642;BME280;32370;41.864;-88.124;2022-11-25T02:33:28;99124.50;;;6.94;89.75
46642;BME280;32370;41.864;-88.124;2022-11-25T02:35:58;99124.90;;;6.51;91.39
46642;BME280;32370;41.864;-88.124;2022-11-25T02:38:31;99123.95;;;6.69;92.36
46642;BME280;32370;41.864;-88.124;2022-11-25T02:41:04;99119.61;;;6.96;92.31
46642;BME280;32370;41.864;-88.124;2022-11-25T02:43:34;99126.10;;;6.57;92.08
46642;BME280;32370;41.864;-88.124;2022-11-25T02:46:03;99122.18;;;7.18;92.24
46642;BME280;32370;41.864;-88.124;2022-11-25T02:48:35;99124.85;;;7.00;92.91
46642;BME280;32370;41.864;-88.124;2022-11-25T02:51:04;99138.67;;;6.99;92.38
46642;BME280;32370;41.864;-88.124;2022-11-25T02:53:33;99146.92;;;7.56;90.79
46642;BME280;32370;41.864;-88.124;2022-11-25T02:56:01;99145.45;;;7.40;89.99
46642;BME280;32370;41.864;-88.124;2022-11-25T02:58:29;99146.75;;;7.62;88.89
46642;BME280;32370;41.864;-88.124;2022-11-25T03:00:56;99138.85;;;7.48;88.88
46642;BME280;32370;41.864;-88.124;2022-11-25T03:03:24;99137.79;;;7.29;89.42
46642;BME280;32370;41.864;-88.124;2022-11-25T03:05:52;99142.29;;;6.84;91.29
46642;BME280;32370;41.864;-88.124;2022-11-25T03:08:20;99137.26;;;7.04;90.51
46642;BME280;32370;41.864;-88.124;2022-11-25T03:10:48;99144.85;;;7.07;90.75
46642;BME280;32370;41.864;-88.124;2022-11-25T03:13:16;99142.15;;;6.56;92.61
46642;BME280;32370;41.864;-88.124;2022-11-25T03:15:44;99138.01;;;6.83;91.83
46642;BME280;32370;41.864;-88.124;2022-11-25T03:18:11;99140.01;;;6.71;91.99
46642;BME280;32370;41.864;-88.124;2022-11-25T03:20:39;99138.11;;;6.53;92.85
46642;BME280;32370;41.864;-88.124;2022-11-25T03:23:07;99143.06;;;6.53;93.64
46642;BME280;32370;41.864;-88.124;2022-11-25T03:25:35;99138.74;;;6.57;95.05
46642;BME280;32370;41.864;-88.124;2022-11-25T03:28:04;99127.35;;;7.01;93.51
46642;BME280;32370;41.864;-88.124;2022-11-25T03:30:31;99131.93;;;7.25;91.94
46642;BME280;32370;41.864;-88.124;2022-11-25T03:32:59;99144.06;;;7.17;91.09
46642;BME280;32370;41.864;-88.124;2022-11-25T03:35:28;99154.52;;;6.17;93.73
46642;BME280;32370;41.864;-88.124;2022-11-25T03:37:55;99147.57;;;5.80;93.74
46642;BME280;32370;41.864;-88.124;2022-11-25T03:40:23;99145.63;;;6.02;95.32
46642;BME280;32370;41.864;-88.124;2022-11-25T03:42:51;99140.09;;;5.69;96.04
46642;BME280;32370;41.864;-88.124;2022-11-25T03:45:19;99138.83;;;5.80;96.45
46642;BME280;32370;41.864;-88.124;2022-11-25T03:47:47;99140.17;;;5.72;97.23
46642;BME280;32370;41.864;-88.124;2022-11-25T03:50:15;99138.71;;;5.90;96.59
46642;BME280;32370;41.864;-88.124;2022-11-25T03:52:42;99146.12;;;5.57;98.07
46642;BME280;32370;41.864;-88.124;2022-11-25T03:55:11;99146.04;;;5.52;98.31
46642;BME280;32370;41.864;-88.124;2022-11-25T03:57:39;99144.99;;;5.47;99.45
46642;BME280;32370;41.864;-88.124;2022-11-25T04:00:09;99144.75;;;5.51;98.82
46642;BME280;32370;41.864;-88.124;2022-11-25T04:02:37;99141.50;;;4.95;100.00
46642;BME280;32370;41.864;-88.124;2022-11-25T04:05:06;99142.00;;;5.70;99.92
46642;BME280;32370;41.864;-88.124;2022-11-25T04:07:34;99147.95;;;5.03;100.00
46642;BME280;32370;41.864;-88.124;2022-11-25T04:10:02;99151.85;;;4.90;100.00
46642;BME280;32370;41.864;-88.124;2022-11-25T04:12:30;99150.52;;;5.21;100.00
46642;BME280;32370;41.864;-88.124;2022-11-25T04:14:57;99153.64;;;5.04;100.00
46642;BME280;32370;41.864;-88.124;2022-11-25T04:17:25;99151.23;;;5.10;100.00
46642;BME280;32370;41.864;-88.124;2022-11-25T04:19:53;99152.62;;;5.02;100.00
46642;BME280;32370;41.864;-88.124;2022-11-25T04:22:21;99152.87;;;5.28;100.00
46642;BME280;32370;41.864;-88.124;2022-11-25T04:24:49;99149.12;;;5.32;100.00
46642;BME280;32370;41.864;-88.124;2022-11-25T04:27:17;99144.38;;;5.36;100.00
46642;BME280;32370;41.864;-88.124;2022-11-25T04:29:45;99149.57;;;5.26;100.00
46642;BME280;32370;41.864;-88.124;2022-11-25T04:32:13;99150.07;;;5.72;100.00
46642;BME280;32370;41.864;-88.124;2022-11-25T04:34:40;99149.75;;;5.50;100.00
46642;BME280;32370;41.864;-88.124;2022-11-25T04:37:08;99148.70;;;5.77;100.00
46642;BME280;32370;41.864;-88.124;2022-11-25T04:39:36;99153.66;;;5.70;100.00
46642;BME280;32370;41.864;-88.124;2022-11-25T04:42:05;99156.39;;;5.87;100.00
46642;BME280;32370;41.864;-88.124;2022-11-25T04:44:33;99151.38;;;5.57;100.00
46642;BME280;32370;41.864;-88.124;2022-11-25T04:47:01;99151.84;;;5.49;100.00
46642;BME280;32370;41.864;-88.124;2022-11-25T04:49:29;99148.00;;;5.09;100.00
46642;BME280;32370;41.864;-88.124;2022-11-25T04:51:56;99148.89;;;5.24;100.00
46642;BME280;32370;41.864;-88.124;2022-11-25T04:54:24;99148.07;;;5.27;100.00
46642;BME280;32370;41.864;-88.124;2022-11-25T04:56:53;99144.08;;;5.44;100.00
46642;BME280;32370;41.864;-88.124;2022-11-25T04:59:21;99143.63;;;5.27;100.00
46642;BME280;32370;41.864;-88.124;2022-11-25T05:01:49;99148.11;;;5.15;100.00
46642;BME280;32370;41.864;-88.124;2022-11-25T05:04:50;99157.67;;;5.25;100.00
46642;BME280;32370;41.864;-88.124;2022-11-25T05:07:20;99167.88;;;5.12;100.00
46642;BME280;32370;41.864;-88.124;2022-11-25T05:09:49;99178.67;;;4.82;100.00
46642;BME280;32370;41.864;-88.124;2022-11-25T05:12:19;99181.85;;;5.12;100.00
46642;BME280;32370;41.864;-88.124;2022-11-25T05:14:48;99187.52;;;5.41;99.46
46642;BME280;32370;41.864;-88.124;2022-11-25T05:17:17;99192.49;;;5.20;98.87
46642;BME280;32370;41.864;-88.124;2022-11-25T05:19:46;99192.99;;;5.16;98.55
46642;BME280;32370;41.864;-88.124;2022-11-25T05:22:15;99197.79;;;5.22;98.77
46642;BME280;32370;41.864;-88.124;2022-11-25T05:24:43;99201.86;;;4.89;99.20
46642;BME280;32370;41.864;-88.124;2022-11-25T05:27:11;99204.80;;;4.70;99.43
46642;BME280;32370;41.864;-88.124;2022-11-25T05:29:40;99208.43;;;4.67;99.19
46642;BME280;32370;41.864;-88.124;2022-11-25T05:32:08;99208.23;;;4.83;99.62
46642;BME280;32370;41.864;-88.124;2022-11-25T05:34:36;99210.45;;;4.80;99.24
46642;BME280;32370;41.864;-88.124;2022-11-25T05:37:05;99210.71;;;5.08;98.78
46642;BME280;32370;41.864;-88.124;2022-11-25T05:39:33;99210.34;;;5.17;98.74
46642;BME280;32370;41.864;-88.124;2022-11-25T05:42:01;99201.80;;;5.12;99.56
46642;BME280;32370;41.864;-88.124;2022-11-25T05:44:29;99206.08;;;4.80;99.39
46642;BME280;32370;41.864;-88.124;2022-11-25T05:46:57;99210.02;;;4.80;100.00
46642;BME280;32370;41.864;-88.124;2022-11-25T05:49:25;99210.50;;;4.66;100.00
46642;BME280;32370;41.864;-88.124;2022-11-25T05:51:52;99220.73;;;4.79;99.97
46642;BME280;32370;41.864;-88.124;2022-11-25T05:54:20;99217.58;;;3.80;100.00
46642;BME280;32370;41.864;-88.124;2022-11-25T05:56:48;99222.39;;;4.51;100.00
46642;BME280;32370;41.864;-88.124;2022-11-25T05:59:17;99218.32;;;4.15;100.00
46642;BME280;32370;41.864;-88.124;2022-11-25T06:01:44;99224.86;;;4.10;100.00
46642;BME280;32370;41.864;-88.124;2022-11-25T06:04:12;99236.73;;;4.24;100.00
46642;BME280;32370;41.864;-88.124;2022-11-25T06:06:40;99237.80;;;3.71;99.74
46642;BME280;32370;41.864;-88.124;2022-11-25T06:09:08;99239.32;;;3.78;99.89
46642;BME280;32370;41.864;-88.124;2022-11-25T06:11:36;99249.11;;;3.52;100.00
46642;BME280;32370;41.864;-88.124;2022-11-25T06:14:04;99246.07;;;3.20;99.44
46642;BME280;32370;41.864;-88.124;2022-11-25T06:16:31;99243.28;;;3.30;100.00
46642;BME280;32370;41.864;-88.124;2022-11-25T06:19:01;99241.18;;;3.79;99.88
46642;BME280;32370;41.864;-88.124;2022-11-25T06:21:29;99247.47;;;3.24;100.00
46642;BME280;32370;41.864;-88.124;2022-11-25T06:23:57;99255.57;;;3.24;100.00
46642;BME280;32370;41.864;-88.124;2022-11-25T06:26:25;99259.17;;;3.48;100.00
46642;BME280;32370;41.864;-88.124;2022-11-25T06:28:54;99262.70;;;3.23;100.00
46642;BME280;32370;41.864;-88.124;2022-11-25T06:31:24;99260.96;;;3.19;100.00
46642;BME280;32370;41.864;-88.124;2022-11-25T06:33:53;99256.28;;;3.23;100.00
46642;BME280;32370;41.864;-88.124;2022-11-25T06:36:22;99255.93;;;3.26;100.00
46642;BME280;32370;41.864;-88.124;2022-11-25T06:38:51;99262.90;;;3.20;100.00
46642;BME280;32370;41.864;-88.124;2022-11-25T06:41:20;99271.26;;;3.04;100.00
46642;BME280;32370;41.864;-88.124;2022-11-25T06:43:48;99274.90;;;2.61;100.00
46642;BME280;32370;41.864;-88.124;2022-11-25T06:46:18;99274.73;;;2.98;99.81
46642;BME280;32370;41.864;-88.124;2022-11-25T06:48:46;99277.02;;;2.41;100.00
46642;BME280;32370;41.864;-88.124;2022-11-25T06:51:15;99285.76;;;2.69;100.00
46642;BME280;32370;41.864;-88.124;2022-11-25T06:53:44;99291.50;;;2.04;100.00
46642;BME280;32370;41.864;-88.124;2022-11-25T06:56:14;99290.59;;;2.43;100.00
46642;BME280;32370;41.864;-88.124;2022-11-25T06:58:44;99294.46;;;2.51;100.00
46642;BME280;32370;41.864;-88.124;2022-11-25T07:01:15;99307.08;;;2.51;100.00
46642;BME280;32370;41.864;-88.124;2022-11-25T07:03:45;99314.70;;;2.45;100.00
46642;BME280;32370;41.864;-88.124;2022-11-25T07:06:15;99318.37;;;2.49;100.00
46642;BME280;32370;41.864;-88.124;2022-11-25T07:08:43;99320.17;;;2.06;100.00
46642;BME280;32370;41.864;-88.124;2022-11-25T07:11:15;99322.33;;;2.06;100.00
46642;BME280;32370;41.864;-88.124;2022-11-25T07:13:44;99328.18;;;2.24;100.00
46642;BME280;32370;41.864;-88.124;2022-11-25T07:16:13;99333.06;;;1.99;100.00
46642;BME280;32370;41.864;-88.124;2022-11-25T07:18:42;99331.50;;;1.91;100.00
46642;BME280;32370;41.864;-88.124;2022-11-25T07:21:11;99324.88;;;1.85;100.00
46642;BME280;32370;41.864;-88.124;2022-11-25T07:23:41;99326.64;;;1.76;100.00
46642;BME280;32370;41.864;-88.124;2022-11-25T07:26:12;99337.84;;;1.67;100.00
46642;BME280;32370;41.864;-88.124;2022-11-25T07:28:41;99342.58;;;1.67;100.00
46642;BME280;32370;41.864;-88.124;2022-11-25T07:31:12;99347.43;;;1.81;100.00
46642;BME280;32370;41.864;-88.124;2022-11-25T07:33:41;99349.42;;;1.88;100.00
46642;BME280;32370;41.864;-88.124;2022-11-25T07:36:11;99354.25;;;1.36;100.00
46642;BME280;32370;41.864;-88.124;2022-11-25T07:38:40;99354.10;;;1.24;100.00
46642;BME280;32370;41.864;-88.124;2022-11-25T07:41:11;99360.03;;;1.24;100.00
46642;BME280;32370;41.864;-88.124;2022-11-25T07:43:42;99357.09;;;1.90;100.00
46642;BME280;32370;41.864;-88.124;2022-11-25T07:46:11;99359.67;;;1.48;98.70
46642;BME280;32370;41.864;-88.124;2022-11-25T07:48:40;99369.62;;;1.52;97.36
46642;BME280;32370;41.864;-88.124;2022-11-25T07:51:15;99379.42;;;1.23;99.42
46642;BME280;32370;41.864;-88.124;2022-11-25T07:53:43;99384.79;;;1.42;98.21
46642;BME280;32370;41.864;-88.124;2022-11-25T07:56:13;99383.04;;;1.05;97.29
46642;BME280;32370;41.864;-88.124;2022-11-25T07:58:41;99388.61;;;1.01;97.98
46642;BME280;32370;41.864;-88.124;2022-11-25T08:01:10;99396.12;;;0.78;97.48
46642;BME280;32370;41.864;-88.124;2022-11-25T08:03:40;99396.81;;;1.06;97.68
46642;BME280;32370;41.864;-88.124;2022-11-25T08:06:10;99391.99;;;0.93;96.92
46642;BME280;32370;41.864;-88.124;2022-11-25T08:08:40;99394.50;;;0.85;96.35
46642;BME280;32370;41.864;-88.124;2022-11-25T08:11:10;99403.04;;;0.43;97.26
46642;BME280;32370;41.864;-88.124;2022-11-25T08:13:38;99399.92;;;0.76;98.71
46642;BME280;32370;41.864;-88.124;2022-11-25T08:16:06;99400.52;;;1.00;97.90
46642;BME280;32370;41.864;-88.124;2022-11-25T08:18:34;99403.63;;;0.64;99.84
46642;BME280;32370;41.864;-88.124;2022-11-25T08:21:04;99398.83;;;1.00;100.00
46642;BME280;32370;41.864;-88.124;2022-11-25T08:23:33;99403.78;;;1.01;100.00
46642;BME280;32370;41.864;-88.124;2022-11-25T08:26:03;99403.51;;;0.57;100.00
46642;BME280;32370;41.864;-88.124;2022-11-25T08:28:32;99406.28;;;0.70;100.00
46642;BME280;32370;41.864;-88.124;2022-11-25T08:31:04;99406.28;;;0.44;100.00
46642;BME280;32370;41.864;-88.124;2022-11-25T08:33:32;99407.81;;;0.49;100.00
46642;BME280;32370;41.864;-88.124;2022-11-25T08:36:00;99410.56;;;0.47;100.00
46642;BME280;32370;41.864;-88.124;2022-11-25T08:38:28;99410.76;;;0.42;100.00
46642;BME280;32370;41.864;-88.124;2022-11-25T08:40:56;99407.73;;;0.26;100.00
46642;BME280;32370;41.864;-88.124;2022-11-25T08:43:24;99407.50;;;0.34;100.00
46642;BME280;32370;41.864;-88.124;2022-11-25T08:45:52;99411.27;;;0.30;100.00
46642;BME280;32370;41.864;-88.124;2022-11-25T08:48:21;99414.74;;;0.19;100.00
46642;BME280;32370;41.864;-88.124;2022-11-25T08:50:52;99417.30;;;0.22;100.00
46642;BME280;32370;41.864;-88.124;2022-11-25T08:53:21;99423.01;;;0.58;100.00
46642;BME280;32370;41.864;-88.124;2022-11-25T08:55:49;99427.19;;;0.66;100.00
46642;BME280;32370;41.864;-88.124;2022-11-25T08:58:17;99433.65;;;0.67;100.00
46642;BME280;32370;41.864;-88.124;2022-11-25T09:00:45;99442.28;;;0.91;100.00
46642;BME280;32370;41.864;-88.124;2022-11-25T09:03:13;99444.06;;;0.70;100.00
46642;BME280;32370;41.864;-88.124;2022-11-25T09:05:42;99446.97;;;0.79;100.00
46642;BME280;32370;41.864;-88.124;2022-11-25T09:08:11;99454.37;;;1.00;100.00
46642;BME280;32370;41.864;-88.124;2022-11-25T09:10:39;99451.76;;;0.66;100.00
46642;BME280;32370;41.864;-88.124;2022-11-25T09:13:08;99445.31;;;0.94;100.00
46642;BME280;32370;41.864;-88.124;2022-11-25T09:15:36;99451.58;;;0.42;100.00
46642;BME280;32370;41.864;-88.124;2022-11-25T09:18:05;99452.76;;;0.78;100.00
46642;BME280;32370;41.864;-88.124;2022-11-25T09:20:35;99461.85;;;0.82;100.00
46642;BME280;32370;41.864;-88.124;2022-11-25T09:23:04;99463.42;;;0.79;100.00
46642;BME280;32370;41.864;-88.124;2022-11-25T09:25:33;99463.05;;;0.71;100.00
46642;BME280;32370;41.864;-88.124;2022-11-25T09:28:02;99458.62;;;0.86;100.00
46642;BME280;32370;41.864;-88.124;2022-11-25T09:30:31;99456.39;;;1.11;100.00
46642;BME280;32370;41.864;-88.124;2022-11-25T09:32:59;99459.42;;;0.99;100.00
46642;BME280;32370;41.864;-88.124;2022-11-25T09:35:27;99451.11;;;0.97;100.00
46642;BME280;32370;41.864;-88.124;2022-11-25T09:37:55;99441.91;;;0.87;100.00
46642;BME280;32370;41.864;-88.124;2022-11-25T09:40:31;99439.84;;;1.03;100.00
46642;BME280;32370;41.864;-88.124;2022-11-25T09:43:07;99438.36;;;0.91;100.00
46642;BME280;32370;41.864;-88.124;2022-11-25T09:45:47;99438.50;;;1.04;100.00
46642;BME280;32370;41.864;-88.124;2022-11-25T09:48:28;99448.35;;;0.81;100.00
46642;BME280;32370;41.864;-88.124;2022-11-25T09:51:04;99456.42;;;0.69;100.00
46642;BME280;32370;41.864;-88.124;2022-11-25T09:53:42;99456.17;;;0.49;100.00
46642;BME280;32370;41.864;-88.124;2022-11-25T09:56:17;99454.64;;;0.21;100.00
46642;BME280;32370;41.864;-88.124;2022-11-25T09:58:50;99448.63;;;0.61;100.00
46642;BME280;32370;41.864;-88.124;2022-11-25T10:01:21;99446.93;;;0.44;100.00
46642;BME280;32370;41.864;-88.124;2022-11-25T10:03:54;99443.90;;;-0.09;100.00
46642;BME280;32370;41.864;-88.124;2022-11-25T10:06:25;99443.00;;;0.28;100.00
46642;BME280;32370;41.864;-88.124;2022-11-25T10:08:56;99446.87;;;0.46;100.00
46642;BME280;32370;41.864;-88.124;2022-11-25T10:11:32;99450.97;;;-0.02;100.00
46642;BME280;32370;41.864;-88.124;2022-11-25T10:14:10;99454.06;;;-0.29;100.00
46642;BME280;32370;41.864;-88.124;2022-11-25T10:16:46;99460.00;;;-0.39;100.00
46642;BME280;32370;41.864;-88.124;2022-11-25T10:19:25;99465.58;;;-0.31;100.00
46642;BME280;32370;41.864;-88.124;2022-11-25T10:21:57;99471.93;;;-0.27;100.00
46642;BME280;32370;41.864;-88.124;2022-11-25T10:24:25;99474.38;;;-0.32;100.00
46642;BME280;32370;41.864;-88.124;2022-11-25T10:26:57;99484.67;;;-0.38;100.00
46642;BME280;32370;41.864;-88.124;2022-11-25T10:29:29;99489.19;;;-0.46;100.00
46642;BME280;32370;41.864;-88.124;2022-11-25T10:32:09;99486.42;;;-0.36;100.00
46642;BME280;32370;41.864;-88.124;2022-11-25T10:34:43;99493.24;;;-0.09;100.00
46642;BME280;32370;41.864;-88.124;2022-11-25T10:37:18;99497.21;;;-0.21;100.00
46642;BME280;32370;41.864;-88.124;2022-11-25T10:39:49;99497.79;;;-0.67;98.98
46642;BME280;32370;41.864;-88.124;2022-11-25T10:42:18;99495.62;;;-0.50;98.50
46642;BME280;32370;41.864;-88.124;2022-11-25T10:44:48;99499.10;;;-0.73;99.46
46642;BME280;32370;41.864;-88.124;2022-11-25T10:47:27;99498.19;;;-0.62;98.40
46642;BME280;32370;41.864;-88.124;2022-11-25T10:50:12;99501.11;;;-0.26;97.52
46642;BME280;32370;41.864;-88.124;2022-11-25T10:52:47;99506.40;;;-0.65;96.99
46642;BME280;32370;41.864;-88.124;2022-11-25T10:55:19;99505.46;;;-0.37;96.53
46642;BME280;32370;41.864;-88.124;2022-11-25T10:57:47;99508.51;;;-0.13;95.96
46642;BME280;32370;41.864;-88.124;2022-11-25T11:00:33;99510.09;;;-0.11;95.56
46642;BME280;32370;41.864;-88.124;2022-11-25T11:03:14;99512.23;;;-0.67;95.24
46642;BME280;32370;41.864;-88.124;2022-11-25T11:05:45;99517.08;;;-0.64;94.82
46642;BME280;32370;41.864;-88.124;2022-11-25T11:08:18;99518.46;;;-0.76;95.17
46642;BME280;32370;41.864;-88.124;2022-11-25T11:10:53;99520.98;;;-0.79;95.38
46642;BME280;32370;41.864;-88.124;2022-11-25T11:13:34;99523.08;;;-0.76;96.38
46642;BME280;32370;41.864;-88.124;2022-11-25T11:16:03;99526.69;;;-0.45;95.72
46642;BME280;32370;41.864;-88.124;2022-11-25T11:18:39;99527.47;;;-0.62;95.42
46642;BME280;32370;41.864;-88.124;2022-11-25T11:21:23;99529.15;;;-0.83;95.22
46642;BME280;32370;41.864;-88.124;2022-11-25T11:23:52;99533.42;;;-0.85;94.92
46642;BME280;32370;41.864;-88.124;2022-11-25T11:26:24;99533.03;;;-0.82;94.75
46642;BME280;32370;41.864;-88.124;2022-11-25T11:29:03;99538.26;;;-1.02;94.93
46642;BME280;32370;41.864;-88.124;2022-11-25T11:31:34;99530.57;;;-1.22;99.78
46642;BME280;32370;41.864;-88.124;2022-11-25T11:34:14;99533.45;;;-1.03;98.23
46642;BME280;32370;41.864;-88.124;2022-11-25T11:36:54;99536.24;;;-0.99;97.17
46642;BME280;32370;41.864;-88.124;2022-11-25T11:39:39;99543.54;;;-0.99;96.25
46642;BME280;32370;41.864;-88.124;2022-11-25T11:42:20;99545.87;;;-0.98;95.75
46642;BME280;32370;41.864;-88.124;2022-11-25T11:45:04;99547.47;;;-1.15;95.19
46642;BME280;32370;41.864;-88.124;2022-11-25T11:47:51;99558.22;;;-0.94;94.67
46642;BME280;32370;41.864;-88.124;2022-11-25T11:50:26;99566.05;;;-1.41;94.26
46642;BME280;32370;41.864;-88.124;2022-11-25T11:53:05;99572.53;;;-0.93;94.09
46642;BME280;32370;41.864;-88.124;2022-11-25T11:55:50;99575.18;;;-1.63;94.37
46642;BME280;32370;41.864;-88.124;2022-11-25T11:58:31;99580.28;;;-1.50;94.47
46642;BME280;32370;41.864;-88.124;2022-11-25T12:01:15;99585.23;;;-1.46;94.35
46642;BME280;32370;41.864;-88.124;2022-11-25T12:03:54;99594.14;;;-1.55;94.06
46642;BME280;32370;41.864;-88.124;2022-11-25T12:06:25;99593.38;;;-1.81;94.24
46642;BME280;32370;41.864;-88.124;2022-11-25T12:09:00;99598.76;;;-1.88;94.42
46642;BME280;32370;41.864;-88.124;2022-11-25T12:11:34;99595.83;;;-1.82;94.26
46642;BME280;32370;41.864;-88.124;2022-11-25T12:14:10;99597.14;;;-1.89;93.99
46642;BME280;32370;41.864;-88.124;2022-11-25T12:16:45;99596.77;;;-1.83;93.90
46642;BME280;32370;41.864;-88.124;2022-11-25T12:19:20;99602.88;;;-1.92;93.95
46642;BME280;32370;41.864;-88.124;2022-11-25T12:21:54;99609.73;;;-1.72;93.66
46642;BME280;32370;41.864;-88.124;2022-11-25T12:24:28;99613.57;;;-1.96;93.73
46642;BME280;32370;41.864;-88.124;2022-11-25T12:27:00;99620.18;;;-2.22;93.72
46642;BME280;32370;41.864;-88.124;2022-11-25T12:29:37;99623.24;;;-1.76;93.69
46642;BME280;32370;41.864;-88.124;2022-11-25T12:32:22;99623.49;;;-2.37;93.50
46642;BME280;32370;41.864;-88.124;2022-11-25T12:35:01;99630.06;;;-2.10;93.10
46642;BME280;32370;41.864;-88.124;2022-11-25T12:37:35;99627.94;;;-1.99;93.09
46642;BME280;32370;41.864;-88.124;2022-11-25T12:40:10;99633.29;;;-2.49;93.73
46642;BME280;32370;41.864;-88.124;2022-11-25T12:42:41;99631.91;;;-2.15;94.37
46642;BME280;32370;41.864;-88.124;2022-11-25T12:45:16;99641.79;;;-2.82;94.68
46642;BME280;32370;41.864;-88.124;2022-11-25T12:47:46;99642.03;;;-2.83;94.56
46642;BME280;32370;41.864;-88.124;2022-11-25T12:50:16;99646.27;;;-2.37;94.96
46642;BME280;32370;41.864;-88.124;2022-11-25T12:52:52;99650.43;;;-2.43;95.01
46642;BME280;32370;41.864;-88.124;2022-11-25T12:55:27;99650.97;;;-2.55;94.88
46642;BME280;32370;41.864;-88.124;2022-11-25T12:58:39;99652.74;;;-1.99;94.63
46642;BME280;32370;41.864;-88.124;2022-11-25T13:01:28;99650.28;;;-2.45;94.28